sensor_id;sensor_type;location;lat;lon;timestamp;pressure;altitude;pressure_sealevel;temperature;humidity
59608;BME280;45426;44.726;10.390;2023-03-19T00:01:10;100867.00;;;7.68;100.00
59608;BME280;45426;44.726;10.390;2023-03-19T00:03:35;100871.50;;;7.58;100.00
59608;BME280;45426;44.726;10.390;2023-03-19T00:06:01;100875.97;;;7.91;100.00
59608;BME280;45426;44.726;10.390;2023-03-19T00:08:26;100863.38;;;7.86;100.00
59608;BME280;45426;44.726;10.390;2023-03-19T00:10:52;100867.97;;;8.00;100.00
59608;BME280;45426;44.726;10.390;2023-03-19T00:13:18;100867.75;;;7.96;100.00
59608;BME280;45426;44.726;10.390;2023-03-19T00:15:44;100867.47;;;8.34;100.00
59608;BME280;45426;44.726;10.390;2023-03-19T00:18:10;100871.84;;;8.21;100.00
59608;BME280;45426;44.726;10.390;2023-03-19T00:20:36;100858.47;;;8.25;100.00
59608;BME280;45426;44.726;10.390;2023-03-19T00:23:01;100852.44;;;7.91;100.00
59608;BME280;45426;44.726;10.390;2023-03-19T00:25:27;100849.75;;;7.77;100.00
59608;BME280;45426;44.726;10.390;2023-03-19T00:27:52;100861.00;;;7.71;100.00
59608;BME280;45426;44.726;10.390;2023-03-19T00:30:20;100867.09;;;7.63;100.00
59608;BME280;45426;44.726;10.390;2023-03-19T00:32:46;100874.63;;;7.66;100.00
59608;BME280;45426;44.726;10.390;2023-03-19T00:35:12;100867.91;;;7.77;100.00
59608;BME280;45426;44.726;10.390;2023-03-19T00:37:38;100868.22;;;7.62;100.00
59608;BME280;45426;44.726;10.390;2023-03-19T00:40:04;100854.97;;;7.74;100.00
59608;BME280;45426;44.726;10.390;2023-03-19T00:42:30;100861.09;;;7.24;100.00
59608;BME280;45426;44.726;10.390;2023-03-19T00:44:56;100852.47;;;7.22;100.00
59608;BME280;45426;44.726;10.390;2023-03-19T00:47:22;100841.97;;;7.48;100.00
59608;BME280;45426;44.726;10.390;2023-03-19T00:49:48;100847.06;;;7.36;100.00
59608;BME280;45426;44.726;10.390;2023-03-19T00:52:13;100849.94;;;6.98;100.00
59608;BME280;45426;44.726;10.390;2023-03-19T00:54:39;100851.88;;;7.39;100.00
59608;BME280;45426;44.726;10.390;2023-03-19T00:57:04;100853.06;;;7.61;100.00
59608;BME280;45426;44.726;10.390;2023-03-19T00:59:30;100845.28;;;7.31;100.00
59608;BME280;45426;44.726;10.390;2023-03-19T01:01:55;100841.75;;;7.58;100.00
59608;BME280;45426;44.726;10.390;2023-03-19T01:04:21;100841.56;;;7.55;100.00
59608;BME280;45426;44.726;10.390;2023-03-19T01:06:47;100841.47;;;7.18;100.00
59608;BME280;45426;44.726;10.390;2023-03-19T01:09:13;100838.16;;;7.35;100.00
59608;BME280;45426;44.726;10.390;2023-03-19T01:11:39;100844.88;;;7.66;100.00
59608;BME280;45426;44.726;10.390;2023-03-19T01:14:05;100842.19;;;8.02;100.00
59608;BME280;45426;44.726;10.390;2023-03-19T01:16:31;100845.34;;;7.68;100.00
59608;BME280;45426;44.726;10.390;2023-03-19T01:18:58;100841.44;;;7.46;100.00
59608;BME280;45426;44.726;10.390;2023-03-19T01:21:23;100848.03;;;7.82;100.00
59608;BME280;45426;44.726;10.390;2023-03-19T01:23:49;100852.56;;;7.58;100.00
59608;BME280;45426;44.726;10.390;2023-03-19T01:26:16;100859.47;;;8.29;100.00
59608;BME280;45426;44.726;10.390;2023-03-19T01:28:42;100847.03;;;8.64;100.00
59608;BME280;45426;44.726;10.390;2023-03-19T01:31:08;100842.41;;;8.28;100.00
59608;BME280;45426;44.726;10.390;2023-03-19T01:33:34;100835.78;;;8.12;100.00
59608;BME280;45426;44.726;10.390;2023-03-19T01:35:59;100838.53;;;8.21;100.00
59608;BME280;45426;44.726;10.390;2023-03-19T01:38:28;100836.69;;;8.98;100.00
59608;BME280;45426;44.726;10.390;2023-03-19T01:40:53;100827.69;;;8.80;100.00
59608;BME280;45426;44.726;10.390;2023-03-19T01:43:23;100827.75;;;8.97;100.00
59608;BME280;45426;44.726;10.390;2023-03-19T01:45:50;100820.78;;;8.73;100.00
59608;BME280;45426;44.726;10.390;2023-03-19T01:48:30;100828.56;;;8.66;100.00
59608;BME280;45426;44.726;10.390;2023-03-19T01:50:59;100822.97;;;8.94;100.00
59608;BME280;45426;44.726;10.390;2023-03-19T01:53:29;100819.91;;;8.87;100.00
59608;BME280;45426;44.726;10.390;2023-03-19T01:56:01;100829.16;;;8.63;100.00
59608;BME280;45426;44.726;10.390;2023-03-19T01:58:27;100838.59;;;8.07;100.00
59608;BME280;45426;44.726;10.390;2023-03-19T02:00:53;100833.50;;;7.91;100.00
59608;BME280;45426;44.726;10.390;2023-03-19T02:03:19;100831.34;;;8.16;100.00
59608;BME280;45426;44.726;10.390;2023-03-19T02:05:45;100831.34;;;8.16;100.00
59608;BME280;45426;44.726;10.390;2023-03-19T02:08:14;100837.06;;;8.37;100.00
59608;BME280;45426;44.726;10.390;2023-03-19T02:10:42;100826.25;;;8.82;100.00
59608;BME280;45426;44.726;10.390;2023-03-19T02:13:09;100821.94;;;8.81;100.00
59608;BME280;45426;44.726;10.390;2023-03-19T02:15:34;100824.38;;;8.91;100.00
59608;BME280;45426;44.726;10.390;2023-03-19T02:18:00;100819.16;;;8.95;100.00
59608;BME280;45426;44.726;10.390;2023-03-19T02:26:11;100815.03;;;9.38;100.00
59608;BME280;45426;44.726;10.390;2023-03-19T02:28:40;100805.16;;;9.59;100.00
59608;BME280;45426;44.726;10.390;2023-03-19T02:31:07;100801.81;;;9.53;100.00
59608;BME280;45426;44.726;10.390;2023-03-19T02:33:33;100817.69;;;9.29;100.00
59608;BME280;45426;44.726;10.390;2023-03-19T02:35:58;100812.72;;;9.71;100.00
59608;BME280;45426;44.726;10.390;2023-03-19T02:38:26;100822.31;;;8.88;100.00
59608;BME280;45426;44.726;10.390;2023-03-19T02:43:21;100802.38;;;9.33;100.00
59608;BME280;45426;44.726;10.390;2023-03-19T02:45:46;100822.38;;;9.37;100.00
59608;BME280;45426;44.726;10.390;2023-03-19T02:48:12;100818.19;;;8.91;100.00
59608;BME280;45426;44.726;10.390;2023-03-19T02:50:37;100824.97;;;8.80;100.00
59608;BME280;45426;44.726;10.390;2023-03-19T02:53:03;100814.88;;;8.71;100.00
59608;BME280;45426;44.726;10.390;2023-03-19T02:55:28;100813.78;;;8.50;100.00
59608;BME280;45426;44.726;10.390;2023-03-19T02:57:54;100808.56;;;8.40;100.00
59608;BME280;45426;44.726;10.390;2023-03-19T03:00:20;100803.84;;;8.99;100.00
59608;BME280;45426;44.726;10.390;2023-03-19T03:02:45;100800.09;;;8.78;100.00
59608;BME280;45426;44.726;10.390;2023-03-19T03:05:11;100804.69;;;9.00;100.00
59608;BME280;45426;44.726;10.390;2023-03-19T03:07:37;100801.31;;;9.43;100.00
59608;BME280;45426;44.726;10.390;2023-03-19T03:10:05;100798.03;;;9.72;100.00
59608;BME280;45426;44.726;10.390;2023-03-19T03:12:30;100799.06;;;9.36;100.00
59608;BME280;45426;44.726;10.390;2023-03-19T03:14:56;100805.25;;;9.28;100.00
59608;BME280;45426;44.726;10.390;2023-03-19T03:17:22;100811.38;;;9.02;100.00
59608;BME280;45426;44.726;10.390;2023-03-19T03:19:48;100811.66;;;8.69;100.00
59608;BME280;45426;44.726;10.390;2023-03-19T03:22:13;100821.47;;;8.57;100.00
59608;BME280;45426;44.726;10.390;2023-03-19T03:24:39;100820.69;;;8.87;100.00
59608;BME280;45426;44.726;10.390;2023-03-19T03:27:04;100825.63;;;9.17;100.00
59608;BME280;45426;44.726;10.390;2023-03-19T03:29:30;100814.69;;;8.99;100.00
59608;BME280;45426;44.726;10.390;2023-03-19T03:31:55;100818.47;;;8.89;100.00
59608;BME280;45426;44.726;10.390;2023-03-19T03:34:21;100818.19;;;8.91;100.00
59608;BME280;45426;44.726;10.390;2023-03-19T03:36:46;100829.53;;;8.70;100.00
59608;BME280;45426;44.726;10.390;2023-03-19T03:39:12;100817.09;;;8.69;100.00
59608;BME280;45426;44.726;10.390;2023-03-19T03:41:38;100824.97;;;8.34;100.00
59608;BME280;45426;44.726;10.390;2023-03-19T03:44:04;100824.25;;;8.43;100.00
59608;BME280;45426;44.726;10.390;2023-03-19T03:46:29;100827.84;;;8.38;100.00
59608;BME280;45426;44.726;10.390;2023-03-19T03:48:54;100821.19;;;8.89;100.00
59608;BME280;45426;44.726;10.390;2023-03-19T03:51:20;100810.25;;;9.43;100.00
59608;BME280;45426;44.726;10.390;2023-03-19T03:53:46;100809.81;;;9.59;100.00
59608;BME280;45426;44.726;10.390;2023-03-19T03:56:12;100827.72;;;9.77;100.00
59608;BME280;45426;44.726;10.390;2023-03-19T03:58:37;100820.81;;;9.62;100.00
59608;BME280;45426;44.726;10.390;2023-03-19T04:01:03;100823.81;;;9.43;100.00
59608;BME280;45426;44.726;10.390;2023-03-19T04:03:28;100824.47;;;9.09;100.00
59608;BME280;45426;44.726;10.390;2023-03-19T04:05:54;100815.28;;;9.19;100.00
59608;BME280;45426;44.726;10.390;2023-03-19T04:08:20;100814.97;;;9.29;100.00
59608;BME280;45426;44.726;10.390;2023-03-19T04:10:45;100823.59;;;9.22;100.00
59608;BME280;45426;44.726;10.390;2023-03-19T04:13:12;100836.38;;;9.30;100.00
59608;BME280;45426;44.726;10.390;2023-03-19T04:15:37;100837.09;;;8.82;100.00
59608;BME280;45426;44.726;10.390;2023-03-19T04:18:03;100829.06;;;8.77;100.00
59608;BME280;45426;44.726;10.390;2023-03-19T04:20:28;100833.59;;;8.82;100.00
59608;BME280;45426;44.726;10.390;2023-03-19T04:22:54;100837.38;;;8.81;100.00
59608;BME280;45426;44.726;10.390;2023-03-19T04:25:20;100838.78;;;9.01;100.00
59608;BME280;45426;44.726;10.390;2023-03-19T04:27:45;100838.56;;;8.88;100.00
59608;BME280;45426;44.726;10.390;2023-03-19T04:30:11;100846.66;;;8.80;100.00
59608;BME280;45426;44.726;10.390;2023-03-19T04:32:37;100849.94;;;8.99;100.00
59608;BME280;45426;44.726;10.390;2023-03-19T04:35:03;100852.16;;;8.97;100.00
59608;BME280;45426;44.726;10.390;2023-03-19T04:37:29;100856.50;;;8.76;100.00
59608;BME280;45426;44.726;10.390;2023-03-19T04:39:54;100863.69;;;8.58;100.00
59608;BME280;45426;44.726;10.390;2023-03-19T04:42:20;100865.16;;;8.64;100.00
59608;BME280;45426;44.726;10.390;2023-03-19T04:44:46;100865.22;;;8.13;100.00
59608;BME280;45426;44.726;10.390;2023-03-19T04:47:11;100869.38;;;8.33;100.00
59608;BME280;45426;44.726;10.390;2023-03-19T04:49:37;100869.03;;;8.71;100.00
59608;BME280;45426;44.726;10.390;2023-03-19T04:52:03;100876.22;;;8.31;100.00
59608;BME280;45426;44.726;10.390;2023-03-19T04:54:28;100876.94;;;8.59;100.00
59608;BME280;45426;44.726;10.390;2023-03-19T04:56:54;100879.53;;;8.64;100.00
59608;BME280;45426;44.726;10.390;2023-03-19T04:59:20;100878.16;;;8.98;100.00
59608;BME280;45426;44.726;10.390;2023-03-19T05:01:46;100879.31;;;9.06;100.00
59608;BME280;45426;44.726;10.390;2023-03-19T05:04:12;100870.06;;;9.07;100.00
59608;BME280;45426;44.726;10.390;2023-03-19T05:06:37;100876.97;;;9.22;100.00
59608;BME280;45426;44.726;10.390;2023-03-19T05:09:03;100866.06;;;9.04;100.00
59608;BME280;45426;44.726;10.390;2023-03-19T05:11:29;100869.91;;;8.81;100.00
59608;BME280;45426;44.726;10.390;2023-03-19T05:13:55;100870.88;;;9.07;100.00
59608;BME280;45426;44.726;10.390;2023-03-19T05:16:21;100879.97;;;9.11;100.00
59608;BME280;45426;44.726;10.390;2023-03-19T05:18:46;100872.94;;;8.79;100.00
59608;BME280;45426;44.726;10.390;2023-03-19T05:21:13;100881.78;;;8.48;100.00
59608;BME280;45426;44.726;10.390;2023-03-19T05:23:40;100872.88;;;8.48;100.00
59608;BME280;45426;44.726;10.390;2023-03-19T05:26:06;100873.56;;;8.53;100.00
59608;BME280;45426;44.726;10.390;2023-03-19T05:28:33;100871.88;;;8.89;100.00
59608;BME280;45426;44.726;10.390;2023-03-19T05:30:58;100862.78;;;8.85;100.00
59608;BME280;45426;44.726;10.390;2023-03-19T05:33:23;100876.94;;;8.59;100.00
59608;BME280;45426;44.726;10.390;2023-03-19T05:35:49;100874.91;;;8.28;100.00
59608;BME280;45426;44.726;10.390;2023-03-19T05:38:15;100891.31;;;7.95;100.00
59608;BME280;45426;44.726;10.390;2023-03-19T05:40:41;100895.09;;;8.08;100.00
59608;BME280;45426;44.726;10.390;2023-03-19T05:43:08;100895.16;;;8.67;100.00
59608;BME280;45426;44.726;10.390;2023-03-19T05:45:34;100889.28;;;8.15;100.00
59608;BME280;45426;44.726;10.390;2023-03-19T05:48:01;100889.84;;;7.62;100.00
59608;BME280;45426;44.726;10.390;2023-03-19T05:50:27;100892.88;;;7.13;100.00
59608;BME280;45426;44.726;10.390;2023-03-19T05:52:52;100904.81;;;6.79;100.00
59608;BME280;45426;44.726;10.390;2023-03-19T05:55:18;100909.66;;;6.96;100.00
59608;BME280;45426;44.726;10.390;2023-03-19T05:57:43;100906.34;;;7.74;100.00
59608;BME280;45426;44.726;10.390;2023-03-19T06:00:09;100917.75;;;7.43;100.00
59608;BME280;45426;44.726;10.390;2023-03-19T06:02:35;100911.72;;;7.32;100.00
59608;BME280;45426;44.726;10.390;2023-03-19T06:05:01;100902.25;;;7.90;100.00
59608;BME280;45426;44.726;10.390;2023-03-19T06:07:26;100900.31;;;7.91;100.00
59608;BME280;45426;44.726;10.390;2023-03-19T06:09:51;100901.97;;;7.78;100.00
59608;BME280;45426;44.726;10.390;2023-03-19T06:12:17;100904.41;;;8.02;100.00
59608;BME280;45426;44.726;10.390;2023-03-19T06:14:43;100910.25;;;7.95;100.00
59608;BME280;45426;44.726;10.390;2023-03-19T06:17:08;100909.56;;;7.48;100.00
59608;BME280;45426;44.726;10.390;2023-03-19T06:19:34;100914.84;;;7.53;100.00
59608;BME280;45426;44.726;10.390;2023-03-19T06:22:00;100922.53;;;7.32;100.00
59608;BME280;45426;44.726;10.390;2023-03-19T06:24:25;100927.91;;;7.79;100.00
59608;BME280;45426;44.726;10.390;2023-03-19T06:26:51;100925.88;;;7.85;100.00
59608;BME280;45426;44.726;10.390;2023-03-19T06:29:16;100924.84;;;8.22;100.00
59608;BME280;45426;44.726;10.390;2023-03-19T06:31:42;100917.97;;;8.52;100.00
59608;BME280;45426;44.726;10.390;2023-03-19T06:34:08;100921.06;;;8.60;100.00
59608;BME280;45426;44.726;10.390;2023-03-19T06:36:33;100914.31;;;8.71;100.00
59608;BME280;45426;44.726;10.390;2023-03-19T06:38:59;100920.16;;;8.64;100.00
59608;BME280;45426;44.726;10.390;2023-03-19T06:41:24;100924.94;;;8.67;100.00
59608;BME280;45426;44.726;10.390;2023-03-19T06:43:49;100925.59;;;9.49;100.00
59608;BME280;45426;44.726;10.390;2023-03-19T06:46:15;100926.03;;;9.74;100.00
59608;BME280;45426;44.726;10.390;2023-03-19T06:48:40;100929.22;;;9.76;100.00
59608;BME280;45426;44.726;10.390;2023-03-19T06:51:06;100919.13;;;10.25;100.00
59608;BME280;45426;44.726;10.390;2023-03-19T06:53:32;100929.16;;;9.99;100.00
59608;BME280;45426;44.726;10.390;2023-03-19T06:55:57;100945.75;;;9.26;100.00
59608;BME280;45426;44.726;10.390;2023-03-19T06:58:22;100955.59;;;9.22;100.00
59608;BME280;45426;44.726;10.390;2023-03-19T07:00:48;100950.53;;;9.29;100.00
59608;BME280;45426;44.726;10.390;2023-03-19T07:03:13;100954.78;;;9.75;100.00
59608;BME280;45426;44.726;10.390;2023-03-19T07:05:39;100940.44;;;10.67;100.00
59608;BME280;45426;44.726;10.390;2023-03-19T07:08:04;100947.28;;;10.47;100.00
59608;BME280;45426;44.726;10.390;2023-03-19T07:10:36;100951.75;;;9.77;100.00
59608;BME280;45426;44.726;10.390;2023-03-19T07:13:02;100959.47;;;9.29;100.00
59608;BME280;45426;44.726;10.390;2023-03-19T07:15:27;100960.75;;;9.01;100.00
59608;BME280;45426;44.726;10.390;2023-03-19T07:17:53;100966.72;;;8.89;100.00
59608;BME280;45426;44.726;10.390;2023-03-19T07:20:18;100968.06;;;9.00;100.00
59608;BME280;45426;44.726;10.390;2023-03-19T07:22:44;100965.03;;;9.56;100.00
59608;BME280;45426;44.726;10.390;2023-03-19T07:25:09;100962.97;;;9.52;100.00
59608;BME280;45426;44.726;10.390;2023-03-19T07:27:34;100968.22;;;10.64;100.00
59608;BME280;45426;44.726;10.390;2023-03-19T07:30:00;100967.28;;;10.77;100.00
59608;BME280;45426;44.726;10.390;2023-03-19T07:32:25;100963.59;;;10.82;100.00
59608;BME280;45426;44.726;10.390;2023-03-19T07:34:51;100963.59;;;10.82;100.00
59608;BME280;45426;44.726;10.390;2023-03-19T07:37:17;100961.03;;;10.77;100.00
59608;BME280;45426;44.726;10.390;2023-03-19T07:39:42;100966.63;;;10.54;100.00
59608;BME280;45426;44.726;10.390;2023-03-19T07:42:08;100962.63;;;10.43;100.00
59608;BME280;45426;44.726;10.390;2023-03-19T07:44:33;100958.16;;;11.08;100.00
59608;BME280;45426;44.726;10.390;2023-03-19T07:46:59;100962.63;;;12.07;100.00
59608;BME280;45426;44.726;10.390;2023-03-19T07:49:24;100959.06;;;12.99;100.00
59608;BME280;45426;44.726;10.390;2023-03-19T07:51:50;100963.88;;;12.81;100.00
59608;BME280;45426;44.726;10.390;2023-03-19T07:54:16;100964.91;;;13.10;100.00
59608;BME280;45426;44.726;10.390;2023-03-19T07:56:41;100964.25;;;13.59;100.00
59608;BME280;45426;44.726;10.390;2023-03-19T07:59:07;100970.19;;;13.73;100.00
59608;BME280;45426;44.726;10.390;2023-03-19T08:01:33;100978.09;;;13.54;100.00
59608;BME280;45426;44.726;10.390;2023-03-19T08:03:58;100965.47;;;13.04;100.00
59608;BME280;45426;44.726;10.390;2023-03-19T08:06:23;100971.97;;;13.57;100.00
59608;BME280;45426;44.726;10.390;2023-03-19T08:08:49;100981.44;;;12.93;100.00
59608;BME280;45426;44.726;10.390;2023-03-19T08:11:14;100978.47;;;13.89;100.00
59608;BME280;45426;44.726;10.390;2023-03-19T08:13:40;100982.72;;;14.24;100.00
59608;BME280;45426;44.726;10.390;2023-03-19T08:16:07;100984.13;;;14.99;100.00
59608;BME280;45426;44.726;10.390;2023-03-19T08:18:33;100980.03;;;14.92;100.00
59608;BME280;45426;44.726;10.390;2023-03-19T08:20:58;100976.34;;;15.29;100.00
59608;BME280;45426;44.726;10.390;2023-03-19T08:23:23;100972.69;;;15.09;100.00
59608;BME280;45426;44.726;10.390;2023-03-19T08:25:49;100971.50;;;15.54;100.00
59608;BME280;45426;44.726;10.390;2023-03-19T08:28:16;100979.56;;;15.47;100.00
59608;BME280;45426;44.726;10.390;2023-03-19T08:30:42;100983.44;;;14.49;100.00
59608;BME280;45426;44.726;10.390;2023-03-19T08:33:07;100972.69;;;15.09;100.00
59608;BME280;45426;44.726;10.390;2023-03-19T08:35:33;100970.22;;;15.04;100.00
59608;BME280;45426;44.726;10.390;2023-03-19T08:37:58;100967.06;;;15.33;100.00
59608;BME280;45426;44.726;10.390;2023-03-19T08:40:24;100977.63;;;15.47;100.00
59608;BME280;45426;44.726;10.390;2023-03-19T08:42:49;100983.47;;;13.63;100.00
59608;BME280;45426;44.726;10.390;2023-03-19T08:45:15;100985.34;;;14.85;100.00
59608;BME280;45426;44.726;10.390;2023-03-19T08:47:41;100981.84;;;15.01;100.00
59608;BME280;45426;44.726;10.390;2023-03-19T08:50:08;100974.03;;;15.15;100.00
59608;BME280;45426;44.726;10.390;2023-03-19T08:52:33;100985.13;;;15.50;100.00
59608;BME280;45426;44.726;10.390;2023-03-19T08:54:59;100984.72;;;14.92;100.00
59608;BME280;45426;44.726;10.390;2023-03-19T08:57:24;100984.72;;;15.96;100.00
59608;BME280;45426;44.726;10.390;2023-03-19T08:59:51;100997.09;;;15.02;100.00
59608;BME280;45426;44.726;10.390;2023-03-19T09:02:17;100991.06;;;15.52;100.00
59608;BME280;45426;44.726;10.390;2023-03-19T09:04:43;100995.03;;;15.55;100.00
59608;BME280;45426;44.726;10.390;2023-03-19T09:07:08;100999.03;;;14.73;100.00
59608;BME280;45426;44.726;10.390;2023-03-19T09:09:40;100987.19;;;15.25;100.00
59608;BME280;45426;44.726;10.390;2023-03-19T09:12:06;100988.53;;;15.31;100.00
59608;BME280;45426;44.726;10.390;2023-03-19T09:14:33;101000.03;;;14.81;100.00
59608;BME280;45426;44.726;10.390;2023-03-19T09:16:59;101001.53;;;14.78;100.00
59608;BME280;45426;44.726;10.390;2023-03-19T09:19:25;101005.31;;;15.02;100.00
59608;BME280;45426;44.726;10.390;2023-03-19T09:21:50;101004.41;;;14.69;100.00
59608;BME280;45426;44.726;10.390;2023-03-19T09:24:15;100994.44;;;14.89;100.00
59608;BME280;45426;44.726;10.390;2023-03-19T09:26:41;100990.47;;;15.15;100.00
59608;BME280;45426;44.726;10.390;2023-03-19T09:29:07;100991.16;;;14.71;100.00
59608;BME280;45426;44.726;10.390;2023-03-19T09:31:33;100984.31;;;15.34;100.00
59608;BME280;45426;44.726;10.390;2023-03-19T09:33:58;100977.78;;;15.39;100.00
59608;BME280;45426;44.726;10.390;2023-03-19T09:36:24;100976.09;;;15.50;100.00
59608;BME280;45426;44.726;10.390;2023-03-19T09:38:50;100971.69;;;15.61;100.00
59608;BME280;45426;44.726;10.390;2023-03-19T09:41:26;100978.09;;;15.21;100.00
59608;BME280;45426;44.726;10.390;2023-03-19T09:44:05;100976.09;;;15.50;100.00
59608;BME280;45426;44.726;10.390;2023-03-19T09:46:42;100983.34;;;15.42;100.00
59608;BME280;45426;44.726;10.390;2023-03-19T09:49:31;100982.09;;;15.40;100.00
59608;BME280;45426;44.726;10.390;2023-03-19T09:54:50;100978.44;;;15.20;100.00
59608;BME280;45426;44.726;10.390;2023-03-19T09:57:18;100980.84;;;14.93;100.00
59608;BME280;45426;44.726;10.390;2023-03-19T09:59:45;100984.41;;;14.81;100.00
59608;BME280;45426;44.726;10.390;2023-03-19T10:15:51;100986.19;;;15.46;100.00
59608;BME280;45426;44.726;10.390;2023-03-19T10:18:18;100993.56;;;14.73;100.00
59608;BME280;45426;44.726;10.390;2023-03-19T10:26:12;100985.66;;;15.56;100.00
59608;BME280;45426;44.726;10.390;2023-03-19T10:28:41;100976.47;;;15.64;100.00
59608;BME280;45426;44.726;10.390;2023-03-19T10:31:24;100980.97;;;16.75;100.00
59608;BME280;45426;44.726;10.390;2023-03-19T10:36:29;100975.22;;;17.42;100.00
59608;BME280;45426;44.726;10.390;2023-03-19T10:38:57;100981.56;;;15.50;100.00
59608;BME280;45426;44.726;10.390;2023-03-19T10:44:33;100975.06;;;15.70;100.00
59608;BME280;45426;44.726;10.390;2023-03-19T10:47:09;100966.38;;;16.71;100.00
59608;BME280;45426;44.726;10.390;2023-03-19T10:49:35;100964.50;;;16.75;100.00
59608;BME280;45426;44.726;10.390;2023-03-19T10:52:01;100961.06;;;16.98;100.00
59608;BME280;45426;44.726;10.390;2023-03-19T10:54:27;100960.38;;;16.46;100.00
59608;BME280;45426;44.726;10.390;2023-03-19T10:56:56;100962.94;;;16.94;100.00
59608;BME280;45426;44.726;10.390;2023-03-19T11:02:02;100949.19;;;18.06;100.00
59608;BME280;45426;44.726;10.390;2023-03-19T11:04:38;100946.72;;;17.51;100.00
59608;BME280;45426;44.726;10.390;2023-03-19T11:07:12;100950.00;;;17.14;100.00
59608;BME280;45426;44.726;10.390;2023-03-19T11:09:48;100957.13;;;18.11;100.00
59608;BME280;45426;44.726;10.390;2023-03-19T11:12:31;100955.78;;;17.32;100.00
59608;BME280;45426;44.726;10.390;2023-03-19T11:14:59;100945.28;;;17.83;100.00
59608;BME280;45426;44.726;10.390;2023-03-19T11:17:34;100955.81;;;18.92;100.00
59608;BME280;45426;44.726;10.390;2023-03-19T11:20:18;100948.22;;;17.48;100.00
59608;BME280;45426;44.726;10.390;2023-03-19T11:22:47;100946.00;;;18.03;100.00
59608;BME280;45426;44.726;10.390;2023-03-19T11:25:15;100945.50;;;18.55;100.00
59608;BME280;45426;44.726;10.390;2023-03-19T11:27:43;100938.13;;;19.30;100.00
59608;BME280;45426;44.726;10.390;2023-03-19T11:30:17;100940.50;;;17.80;100.00
59608;BME280;45426;44.726;10.390;2023-03-19T11:35:27;100935.78;;;18.61;100.00
59608;BME280;45426;44.726;10.390;2023-03-19T11:37:58;100939.00;;;18.67;100.00
59608;BME280;45426;44.726;10.390;2023-03-19T11:51:27;100923.53;;;19.30;100.00
59608;BME280;45426;44.726;10.390;2023-03-19T11:54:09;100914.44;;;19.26;100.00
59608;BME280;45426;44.726;10.390;2023-03-19T11:56:43;100920.75;;;18.24;100.00
59608;BME280;45426;44.726;10.390;2023-03-19T11:59:34;100913.94;;;18.79;100.00
59608;BME280;45426;44.726;10.390;2023-03-19T12:05:23;100908.31;;;18.68;100.00
59608;BME280;45426;44.726;10.390;2023-03-19T12:14:11;100911.03;;;17.77;100.00
59608;BME280;45426;44.726;10.390;2023-03-19T12:19:26;100893.91;;;17.61;100.00
59608;BME280;45426;44.726;10.390;2023-03-19T12:22:16;100883.78;;;17.42;100.00
59608;BME280;45426;44.726;10.390;2023-03-19T12:27:59;100879.00;;;17.62;100.00
59608;BME280;45426;44.726;10.390;2023-03-19T12:36:02;100873.75;;;17.53;100.00
59608;BME280;45426;44.726;10.390;2023-03-19T12:38:38;100871.25;;;18.58;100.00
59608;BME280;45426;44.726;10.390;2023-03-19T12:41:10;100868.56;;;18.28;100.00
59608;BME280;45426;44.726;10.390;2023-03-19T12:48:46;100875.31;;;18.04;100.00
59608;BME280;45426;44.726;10.390;2023-03-19T12:51:18;100867.25;;;17.88;100.00
59608;BME280;45426;44.726;10.390;2023-03-19T12:56:55;100859.75;;;17.12;100.00
59608;BME280;45426;44.726;10.390;2023-03-19T12:59:34;100852.06;;;18.28;100.00
59608;BME280;45426;44.726;10.390;2023-03-19T13:04:52;100855.97;;;17.43;100.00
59608;BME280;45426;44.726;10.390;2023-03-19T13:10:36;100853.50;;;17.88;100.00
59608;BME280;45426;44.726;10.390;2023-03-19T13:15:54;100854.00;;;17.97;100.00
59608;BME280;45426;44.726;10.390;2023-03-19T13:18:38;100853.13;;;17.90;100.00
59608;BME280;45426;44.726;10.390;2023-03-19T13:23:40;100847.13;;;17.57;100.00
59608;BME280;45426;44.726;10.390;2023-03-19T13:26:09;100846.97;;;17.46;100.00
59608;BME280;45426;44.726;10.390;2023-03-19T13:28:52;100846.22;;;17.76;100.00
59608;BME280;45426;44.726;10.390;2023-03-19T13:31:20;100836.28;;;18.96;100.00
59608;BME280;45426;44.726;10.390;2023-03-19T13:34:00;100839.50;;;18.31;100.00
59608;BME280;45426;44.726;10.390;2023-03-19T13:36:27;100843.50;;;18.03;100.00
59608;BME280;45426;44.726;10.390;2023-03-19T13:38:56;100845.09;;;17.27;100.00
59608;BME280;45426;44.726;10.390;2023-03-19T13:46:46;100841.44;;;17.96;100.00
59608;BME280;45426;44.726;10.390;2023-03-19T13:51:38;100839.97;;;17.49;100.00
59608;BME280;45426;44.726;10.390;2023-03-19T13:54:16;100828.00;;;17.64;100.00
59608;BME280;45426;44.726;10.390;2023-03-19T13:59:27;100821.03;;;17.44;100.00
59608;BME280;45426;44.726;10.390;2023-03-19T14:01:54;100821.72;;;17.91;100.00
59608;BME280;45426;44.726;10.390;2023-03-19T14:04:30;100814.16;;;18.11;100.00
59608;BME280;45426;44.726;10.390;2023-03-19T14:07:09;100819.13;;;17.75;100.00
59608;BME280;45426;44.726;10.390;2023-03-19T14:09:47;100816.50;;;17.05;100.00
59608;BME280;45426;44.726;10.390;2023-03-19T14:14:54;100809.78;;;17.79;100.00
59608;BME280;45426;44.726;10.390;2023-03-19T14:17:40;100806.81;;;17.92;100.00
59608;BME280;45426;44.726;10.390;2023-03-19T14:22:52;100799.53;;;17.50;100.00
59608;BME280;45426;44.726;10.390;2023-03-19T14:25:22;100796.09;;;17.30;100.00